Time;durP1;ratioP1;P1;durP2;ratioP2;P2;SDS_P1;SDS_P2;PMS_P1;PMS_P2;Temp;Humidity;BMP_temperature;BMP_pressure;BME280_temperature;BME280_humidity;BME280_pressure;Samples;Min_cycle;Max_cycle;Signal;HPM_P1;HPM_P2
2022/05/05 00:01:44;;;;;;;16.42;9.88;;;5.70;23.20;;;;;;5060175;28;20040;-87
2022/05/05 00:04:10;;;;;;;15.98;9.75;;;5.70;96.60;;;;;;5039490;28;20059;-88
2022/05/05 00:06:37;;;;;;;18.33;11.18;;;5.70;86.20;;;;;;5057317;28;20570;-87
2022/05/05 00:09:05;;;;;;;16.15;9.52;;;5.70;97.40;;;;;;5040504;28;20029;-87
2022/05/05 00:14:24;;;;;;;16.10;9.38;;;5.60;87.70;;;;;;5056057;28;20131;-87
2022/05/05 00:16:56;;;;;;;14.65;9.10;;;5.50;66.10;;;;;;5040849;28;20492;-87
2022/05/05 00:19:22;;;;;;;16.58;9.75;;;5.60;70.70;;;;;;5049251;28;20048;-86
2022/05/05 00:21:47;;;;;;;17.98;9.73;;;5.60;54.60;;;;;;5056067;28;20047;-87
2022/05/05 00:24:13;;;;;;;16.75;10.65;;;5.60;86.00;;;;;;5039858;28;20037;-87
2022/05/05 00:26:39;;;;;;;15.65;9.40;;;5.60;99.90;;;;;;5042644;28;20109;-87
2022/05/05 00:29:05;;;;;;;17.13;10.82;;;5.60;99.90;;;;;;5056645;28;20028;-87
2022/05/05 00:31:31;;;;;;;15.82;9.50;;;5.60;98.60;;;;;;5053249;28;20068;-88
2022/05/05 00:33:56;;;;;;;15.40;9.57;;;5.60;90.50;;;;;;5059462;28;20124;-87
2022/05/05 00:36:22;;;;;;;14.48;9.30;;;5.60;81.40;;;;;;5054857;28;20032;-87
2022/05/05 00:38:48;;;;;;;16.15;8.93;;;5.60;54.80;;;;;;5056544;28;20082;-87
2022/05/05 00:41:13;;;;;;;19.23;9.15;;;5.60;47.40;;;;;;5039447;28;20047;-87
2022/05/05 00:43:39;;;;;;;10.65;8.45;;;5.60;30.60;;;;;;5055803;28;20101;-87
2022/05/05 00:46:05;;;;;;;13.93;8.50;;;5.60;2.80;;;;;;5050053;28;20081;-88
2022/05/05 00:48:34;;;;;;;15.57;8.93;;;5.60;1.00;;;;;;5059089;28;20032;-87
2022/05/05 00:50:59;;;;;;;18.60;9.98;;;5.60;15.50;;;;;;5038344;28;20041;-87
2022/05/05 00:53:26;;;;;;;15.80;10.38;;;5.60;99.90;;;;;;5034844;28;20051;-87
2022/05/05 00:56:05;;;;;;;20.02;9.25;;;5.60;97.90;;;;;;5051780;28;20028;-86
2022/05/05 00:58:31;;;;;;;11.23;8.45;;;5.60;70.30;;;;;;5038256;28;20041;-87
2022/05/05 01:01:01;;;;;;;15.00;9.10;;;5.70;18.70;;;;;;5042757;28;20071;-89
2022/05/05 01:03:27;;;;;;;14.13;9.30;;;5.70;40.20;;;;;;5051744;28;20324;-87
2022/05/05 01:05:53;;;;;;;13.48;9.38;;;5.70;61.30;;;;;;5054655;28;20040;-88
2022/05/05 01:08:19;;;;;;;15.57;9.60;;;5.70;69.90;;;;;;5039254;28;20036;-87
2022/05/05 01:10:45;;;;;;;15.60;8.80;;;5.80;71.70;;;;;;5046829;28;20127;-88
2022/05/05 01:13:11;;;;;;;12.30;8.60;;;5.80;28.50;;;;;;5057111;28;20032;-87
2022/05/05 01:15:37;;;;;;;13.68;8.40;;;5.90;23.80;;;;;;5048038;28;20032;-88
2022/05/05 01:18:03;;;;;;;19.23;8.30;;;5.90;13.90;;;;;;5039456;28;20059;-88
2022/05/05 01:20:28;;;;;;;12.32;7.97;;;6.00;40.40;;;;;;5043924;28;20425;-88
2022/05/05 01:22:57;;;;;;;15.23;8.73;;;5.90;12.40;;;;;;5053323;28;20044;-87
2022/05/05 01:28:14;;;;;;;14.48;8.13;;;5.90;37.00;;;;;;5051248;28;20040;-86
2022/05/05 01:30:45;;;;;;;12.23;8.40;;;6.00;27.50;;;;;;5040839;28;20047;-87
2022/05/05 01:33:14;;;;;;;14.00;8.73;;;6.00;70.40;;;;;;5039336;28;20606;-88
2022/05/05 01:35:41;;;;;;;13.13;8.52;;;6.00;62.10;;;;;;5050798;28;20377;-87
2022/05/05 01:38:12;;;;;;;14.15;8.07;;;6.10;1.00;;;;;;5055413;28;20097;-87
2022/05/05 01:40:39;;;;;;;11.70;7.60;;;6.10;1.00;;;;;;5041090;28;20043;-86
2022/05/05 01:43:08;;;;;;;14.85;8.05;;;6.10;1.00;;;;;;5049972;28;20422;-87
2022/05/05 01:45:35;;;;;;;12.02;7.10;;;6.10;10.10;;;;;;5061034;28;20036;-87
2022/05/05 01:48:01;;;;;;;14.23;8.07;;;6.10;2.30;;;;;;5042138;28;20036;-87
2022/05/05 01:50:31;;;;;;;9.80;7.32;;;6.10;1.00;;;;;;5053880;28;20136;-87
2022/05/05 01:52:57;;;;;;;16.48;8.50;;;6.10;2.10;;;;;;5039125;28;20106;-87
2022/05/05 01:55:22;;;;;;;11.70;8.23;;;6.00;8.10;;;;;;5057196;28;20040;-86
2022/05/05 01:57:49;;;;;;;14.15;8.05;;;6.00;51.90;;;;;;5038774;28;20059;-87
2022/05/05 02:00:17;;;;;;;12.13;8.48;;;6.00;75.10;;;;;;5046051;28;20036;-87
2022/05/05 02:02:44;;;;;;;15.48;7.45;;;6.00;60.80;;;;;;5032906;28;20391;-87
2022/05/05 02:05:11;;;;;;;11.13;7.78;;;6.00;37.00;;;;;;5054292;28;20036;-86
2022/05/05 02:07:37;;;;;;;11.77;8.20;;;6.00;18.50;;;;;;5039505;28;20063;-87
2022/05/05 02:10:09;;;;;;;12.18;7.78;;;6.00;28.70;;;;;;5054644;28;20474;-87
2022/05/05 02:12:36;;;;;;;13.40;7.63;;;6.00;8.10;;;;;;5056808;28;20139;-87
2022/05/05 02:15:09;;;;;;;14.07;8.30;;;6.00;1.00;;;;;;5056341;28;20059;-88
2022/05/05 02:17:36;;;;;;;10.73;7.30;;;6.00;3.80;;;;;;5045226;28;20443;-87
2022/05/05 02:20:07;;;;;;;13.93;8.07;;;6.00;1.00;;;;;;5052778;28;20056;-86
2022/05/05 02:22:33;;;;;;;12.55;7.70;;;6.00;1.00;;;;;;5070683;28;20047;-88
2022/05/05 02:24:59;;;;;;;13.20;7.85;;;6.00;1.00;;;;;;5036773;28;20036;-87
2022/05/05 02:27:25;;;;;;;10.82;7.53;;;6.00;1.00;;;;;;5035366;28;20487;-87
2022/05/05 02:29:53;;;;;;;13.73;7.60;;;6.00;1.00;;;;;;5040485;28;20032;-88
2022/05/05 02:32:19;;;;;;;14.55;7.68;;;6.00;1.00;;;;;;5037300;28;20481;-87
2022/05/05 02:34:46;;;;;;;13.00;7.65;;;5.90;2.60;;;;;;5036629;28;20283;-87
2022/05/05 02:39:57;;;;;;;16.67;7.57;;;5.90;1.00;;;;;;5052267;28;20389;-87
2022/05/05 02:42:23;;;;;;;17.40;8.13;;;5.80;1.00;;;;;;5036182;28;20181;-88
2022/05/05 02:44:49;;;;;;;14.10;7.70;;;5.80;13.60;;;;;;5034019;28;20421;-87
2022/05/05 02:47:15;;;;;;;12.25;7.78;;;5.70;16.00;;;;;;5057835;28;20888;-87
2022/05/05 02:49:41;;;;;;;14.80;9.32;;;5.70;20.50;;;;;;5061230;28;20115;-88
2022/05/05 02:52:08;;;;;;;14.85;7.88;;;5.70;50.80;;;;;;5053635;28;20169;-87
2022/05/05 02:54:47;;;;;;;13.32;7.78;;;5.60;30.10;;;;;;5047580;28;20280;-87
2022/05/05 02:57:14;;;;;;;13.95;8.43;;;5.60;37.90;;;;;;5038093;28;20039;-87
2022/05/05 02:59:39;;;;;;;15.13;8.68;;;5.60;63.40;;;;;;5056543;28;20043;-86
2022/05/05 03:02:05;;;;;;;15.10;8.50;;;5.60;34.40;;;;;;5039464;28;20366;-86
2022/05/05 03:04:31;;;;;;;15.48;9.02;;;5.60;48.20;;;;;;5056486;28;20036;-87
2022/05/05 03:06:57;;;;;;;12.10;8.52;;;5.60;94.80;;;;;;5037649;28;20182;-86
2022/05/05 03:09:22;;;;;;;17.58;9.38;;;5.60;95.40;;;;;;5061472;28;20040;-87
2022/05/05 03:11:48;;;;;;;12.02;8.70;;;5.60;99.90;;;;;;5056672;28;20029;-88
2022/05/05 03:14:14;;;;;;;14.38;8.80;;;5.60;99.90;;;;;;5045329;28;20661;-86
2022/05/05 03:16:40;;;;;;;10.63;7.80;;;5.60;99.90;;;;;;5058427;28;20331;-86
2022/05/05 03:19:06;;;;;;;15.65;9.00;;;5.60;97.90;;;;;;5057755;28;20062;-88
2022/05/05 03:21:31;;;;;;;17.27;9.20;;;5.60;95.30;;;;;;5040658;28;20490;-87
2022/05/05 03:23:57;;;;;;;15.65;8.68;;;5.60;94.40;;;;;;5055490;28;20183;-86
2022/05/05 03:26:23;;;;;;;18.20;8.98;;;5.60;99.90;;;;;;5059268;28;20552;-86
2022/05/05 03:28:49;;;;;;;16.73;9.10;;;5.60;99.90;;;;;;5060041;28;20508;-88
2022/05/05 03:31:15;;;;;;;13.27;7.90;;;5.60;99.90;;;;;;5043653;28;20452;-88
2022/05/05 03:33:40;;;;;;;12.90;8.55;;;5.50;99.20;;;;;;5056473;28;20075;-87
2022/05/05 03:36:06;;;;;;;13.48;9.15;;;5.50;91.20;;;;;;5045119;28;20128;-87
2022/05/05 03:38:32;;;;;;;17.85;8.93;;;5.50;99.90;;;;;;5042371;28;20045;-87
2022/05/05 03:40:58;;;;;;;14.88;8.90;;;5.50;99.90;;;;;;5055774;28;20043;-87
2022/05/05 03:43:24;;;;;;;14.57;8.23;;;5.50;99.90;;;;;;5036155;28;20041;-87
2022/05/05 03:45:52;;;;;;;15.68;9.50;;;5.60;99.90;;;;;;5041737;28;20032;-87
2022/05/05 03:48:18;;;;;;;17.25;9.00;;;5.60;99.90;;;;;;5046138;28;20465;-87
2022/05/05 03:50:44;;;;;;;18.88;8.70;;;5.60;96.60;;;;;;5055799;28;20083;-87
2022/05/05 03:53:10;;;;;;;12.20;8.68;;;5.60;99.00;;;;;;5056672;28;20382;-87
2022/05/05 03:55:35;;;;;;;17.42;8.30;;;5.70;99.90;;;;;;5055156;28;20165;-87
2022/05/05 03:58:01;;;;;;;13.02;9.25;;;5.60;99.90;;;;;;5043178;28;20055;-86
2022/05/05 04:00:27;;;;;;;15.88;8.93;;;5.60;99.90;;;;;;5043594;28;20032;-87
2022/05/05 04:05:36;;;;;;;15.20;9.07;;;5.60;99.90;;;;;;5053640;28;20056;-86
2022/05/05 04:08:06;;;;;;;15.90;9.30;;;5.60;99.90;;;;;;5038559;28;20093;-87
2022/05/05 04:10:32;;;;;;;15.10;9.27;;;5.70;99.90;;;;;;5057881;28;20512;-88
2022/05/05 04:12:57;;;;;;;14.27;9.80;;;5.70;99.90;;;;;;5059963;28;20126;-88
2022/05/05 04:15:24;;;;;;;12.98;8.95;;;5.70;99.90;;;;;;5059643;28;20120;-88
2022/05/05 04:17:53;;;;;;;13.52;9.30;;;5.80;99.90;;;;;;5060402;28;20031;-87
2022/05/05 04:20:19;;;;;;;11.88;8.45;;;5.90;99.90;;;;;;5042231;28;20467;-87
2022/05/05 04:22:44;;;;;;;14.27;10.00;;;6.00;99.90;;;;;;5046704;28;20085;-88
2022/05/05 04:25:12;;;;;;;11.55;9.20;;;6.00;99.90;;;;;;5053053;28;20059;-88
2022/05/05 04:27:41;;;;;;;12.93;8.95;;;6.10;99.90;;;;;;5060079;28;20443;-88
2022/05/05 04:30:10;;;;;;;15.82;9.52;;;6.10;99.90;;;;;;5044947;28;20120;-87
2022/05/05 04:32:36;;;;;;;14.80;9.82;;;6.20;99.90;;;;;;5042122;28;20083;-89
2022/05/05 04:35:02;;;;;;;13.90;9.55;;;6.30;99.90;;;;;;5058736;28;20146;-88
2022/05/05 04:37:28;;;;;;;16.48;9.52;;;6.30;99.90;;;;;;5044857;28;20048;-87
2022/05/05 04:39:54;;;;;;;17.55;9.73;;;6.40;99.90;;;;;;5056239;28;20060;-87
2022/05/05 04:42:19;;;;;;;15.73;9.52;;;6.40;99.90;;;;;;5056311;28;20195;-86
2022/05/05 04:44:45;;;;;;;16.80;9.57;;;6.50;99.90;;;;;;5059887;28;20152;-87
2022/05/05 04:47:14;;;;;;;16.95;10.65;;;6.60;99.90;;;;;;5041580;28;20040;-87
2022/05/05 04:49:39;;;;;;;15.50;9.98;;;6.60;99.90;;;;;;5048772;28;20039;-87
2022/05/05 04:52:05;;;;;;;14.07;10.23;;;6.70;97.30;;;;;;5040861;28;20032;-88
2022/05/05 04:54:31;;;;;;;19.73;11.15;;;6.80;87.10;;;;;;5054456;28;20046;-88
2022/05/05 04:56:57;;;;;;;20.10;11.50;;;6.80;97.10;;;;;;5043944;28;20044;-87
2022/05/05 04:59:22;;;;;;;15.13;11.52;;;6.90;94.10;;;;;;5041279;28;20125;-86
2022/05/05 05:01:48;;;;;;;15.25;10.95;;;7.00;91.40;;;;;;5043211;28;20043;-87
2022/05/05 05:04:17;;;;;;;17.83;12.00;;;7.10;90.20;;;;;;5046652;28;20036;-87
2022/05/05 05:06:43;;;;;;;16.10;11.65;;;7.20;90.70;;;;;;5053810;28;20123;-86
2022/05/05 05:09:09;;;;;;;21.67;13.48;;;7.20;99.90;;;;;;5041189;28;20193;-87
2022/05/05 05:11:35;;;;;;;16.45;11.85;;;7.30;99.70;;;;;;5043666;28;20040;-87
2022/05/05 05:14:01;;;;;;;20.23;11.88;;;7.40;81.90;;;;;;5042615;28;20527;-87
2022/05/05 05:16:26;;;;;;;23.42;13.45;;;7.50;86.90;;;;;;5061045;28;20036;-88
2022/05/05 05:18:53;;;;;;;22.30;12.55;;;7.60;91.20;;;;;;5044620;28;20174;-87
2022/05/05 05:21:23;;;;;;;18.48;12.02;;;7.60;99.90;;;;;;5040517;28;20047;-86
2022/05/05 05:23:49;;;;;;;19.92;12.27;;;7.70;54.60;;;;;;5044393;28;20035;-88
2022/05/05 05:26:15;;;;;;;19.25;11.65;;;7.80;52.00;;;;;;5044294;28;20246;-87
2022/05/05 05:28:42;;;;;;;18.58;11.20;;;7.90;14.20;;;;;;5039872;28;20143;-88
2022/05/05 05:31:08;;;;;;;17.20;10.55;;;8.00;12.50;;;;;;5040798;28;20511;-87
2022/05/05 05:33:37;;;;;;;16.45;11.25;;;8.00;14.90;;;;;;5043848;28;20040;-87
2022/05/05 05:36:03;;;;;;;16.52;11.10;;;8.10;24.90;;;;;;5057177;28;20028;-87
2022/05/05 05:38:29;;;;;;;20.10;11.60;;;8.30;9.20;;;;;;5057681;28;20028;-88
2022/05/05 05:40:54;;;;;;;22.00;11.15;;;8.40;10.00;;;;;;5042993;28;20059;-88
2022/05/05 05:43:20;;;;;;;17.05;11.35;;;8.50;1.00;;;;;;5045208;28;20051;-87
2022/05/05 05:45:46;;;;;;;14.30;10.25;;;8.50;37.20;;;;;;5043796;28;20028;-87
2022/05/05 05:48:12;;;;;;;17.20;12.10;;;8.60;1.00;;;;;;5060751;28;20029;-87
2022/05/05 05:50:38;;;;;;;20.10;10.82;;;8.70;1.00;;;;;;5056352;28;20040;-87
2022/05/05 05:53:03;;;;;;;19.40;10.90;;;8.80;1.00;;;;;;5036488;28;20089;-87
2022/05/05 05:55:29;;;;;;;15.77;9.50;;;8.80;1.00;;;;;;5042979;28;20047;-86
2022/05/05 05:57:55;;;;;;;16.35;11.18;;;9.00;1.00;;;;;;5039507;28;20412;-88
2022/05/05 06:00:20;;;;;;;13.90;10.05;;;9.10;1.00;;;;;;5043165;28;20050;-88
2022/05/05 06:05:31;;;;;;;16.13;9.88;;;9.30;1.00;;;;;;5050599;28;20524;-88
2022/05/05 06:07:58;;;;;;;19.40;10.68;;;9.30;1.00;;;;;;5039768;28;20258;-86
2022/05/05 06:10:25;;;;;;;20.20;10.65;;;9.50;1.00;;;;;;5045202;28;20173;-88
2022/05/05 06:12:51;;;;;;;15.18;9.93;;;9.40;1.00;;;;;;5037352;28;20036;-87
2022/05/05 06:15:17;;;;;;;15.43;9.98;;;9.60;1.00;;;;;;5042338;28;20044;-87
2022/05/05 06:17:43;;;;;;;20.75;10.35;;;9.70;1.00;;;;;;5056960;28;20040;-88
2022/05/05 06:20:10;;;;;;;13.30;9.80;;;9.80;1.00;;;;;;5038994;28;20055;-87
2022/05/05 06:22:39;;;;;;;13.13;9.35;;;9.80;1.00;;;;;;5055097;28;20044;-88
2022/05/05 06:25:05;;;;;;;14.43;9.55;;;9.90;1.00;;;;;;5039291;28;20604;-88
2022/05/05 06:27:31;;;;;;;13.10;9.88;;;10.00;1.00;;;;;;5056866;28;20040;-88
2022/05/05 06:29:57;;;;;;;16.60;9.98;;;10.10;99.90;;;;;;5039299;28;20074;-87
2022/05/05 06:32:22;;;;;;;18.15;10.13;;;10.20;1.00;;;;;;5040138;28;20058;-87
2022/05/05 06:34:48;;;;;;;15.88;9.52;;;10.40;99.90;;;;;;5056935;28;20040;-88
2022/05/05 06:37:14;;;;;;;16.65;10.05;;;10.50;99.90;;;;;;5041561;28;20037;-88
2022/05/05 06:39:40;;;;;;;18.02;9.48;;;10.70;99.90;;;;;;5040060;28;20040;-89
2022/05/05 06:42:06;;;;;;;17.60;9.90;;;10.70;1.00;;;;;;5055304;28;20125;-89
2022/05/05 06:44:35;;;;;;;16.65;9.65;;;10.80;99.90;;;;;;5039400;28;20668;-89
2022/05/05 06:47:01;;;;;;;17.52;9.43;;;11.00;99.90;;;;;;5070234;28;20035;-88
2022/05/05 06:49:27;;;;;;;13.95;9.00;;;11.20;99.90;;;;;;5056721;28;20062;-89
2022/05/05 06:51:52;;;;;;;15.32;8.27;;;11.40;99.90;;;;;;5054375;28;20113;-88
2022/05/05 06:54:18;;;;;;;14.02;8.25;;;11.40;99.90;;;;;;5059598;28;20090;-87
2022/05/05 06:56:44;;;;;;;13.48;8.57;;;11.50;99.90;;;;;;5033722;28;20048;-89
2022/05/05 06:59:10;;;;;;;14.43;9.25;;;11.50;99.90;;;;;;5026627;28;20394;-87
2022/05/05 07:01:54;;;;;;;14.43;8.27;;;11.60;99.90;;;;;;5039229;28;20031;-88
2022/05/05 07:07:06;;;;;;;13.10;8.80;;;11.70;99.90;;;;;;5058880;28;20206;-87
2022/05/05 07:12:19;;;;;;;11.98;8.48;;;12.10;99.90;;;;;;5073853;28;20046;-88
2022/05/05 07:14:45;;;;;;;16.05;8.82;;;12.10;99.90;;;;;;5053098;28;20039;-87
2022/05/05 07:17:12;;;;;;;17.48;8.35;;;12.30;99.90;;;;;;5040425;28;20067;-88
2022/05/05 07:19:38;;;;;;;15.60;8.98;;;12.30;99.90;;;;;;5029808;28;20076;-87
2022/05/05 07:22:05;;;;;;;17.55;8.43;;;12.40;99.90;;;;;;5070474;28;20083;-88
2022/05/05 07:24:33;;;;;;;12.70;8.18;;;12.50;99.90;;;;;;5036724;28;20131;-88
2022/05/05 07:27:01;;;;;;;14.70;8.27;;;12.60;99.90;;;;;;5037626;28;20119;-88
2022/05/05 07:29:27;;;;;;;12.77;7.63;;;12.70;99.90;;;;;;5047405;28;20479;-89
2022/05/05 07:31:52;;;;;;;11.27;8.23;;;12.60;99.90;;;;;;5052169;28;20104;-88
2022/05/05 07:34:21;;;;;;;12.45;8.07;;;12.90;99.90;;;;;;5042850;28;20104;-88
2022/05/05 07:36:50;;;;;;;12.15;7.57;;;12.90;99.90;;;;;;5058916;28;20117;-87
2022/05/05 07:39:16;;;;;;;13.25;7.90;;;13.10;99.90;;;;;;5038419;28;20071;-89
2022/05/05 07:41:42;;;;;;;11.30;6.90;;;13.20;99.90;;;;;;5042800;28;20238;-87
2022/05/05 07:44:09;;;;;;;9.95;6.80;;;13.20;99.90;;;;;;5043784;28;20036;-87
2022/05/05 07:46:35;;;;;;;13.80;7.57;;;13.40;99.90;;;;;;5051103;28;20047;-87
2022/05/05 07:49:03;;;;;;;13.95;7.80;;;13.50;99.90;;;;;;5047214;28;20037;-87
2022/05/05 07:51:30;;;;;;;13.07;7.40;;;13.70;99.90;;;;;;5034617;28;20047;-89
2022/05/05 07:56:42;;;;;;;14.88;7.38;;;13.80;99.90;;;;;;5052457;28;20041;-88
2022/05/05 07:59:08;;;;;;;12.95;6.90;;;13.90;99.90;;;;;;5041916;28;20322;-88
2022/05/05 08:01:33;;;;;;;13.27;7.55;;;13.90;99.90;;;;;;5036165;28;20098;-87
2022/05/05 08:04:02;;;;;;;14.48;7.43;;;14.00;99.90;;;;;;5056873;28;20037;-87
2022/05/05 08:06:28;;;;;;;12.18;7.43;;;14.20;99.90;;;;;;5054519;28;20033;-88
2022/05/05 08:08:54;;;;;;;13.50;7.20;;;14.30;99.90;;;;;;5056690;28;20036;-86
2022/05/05 08:11:19;;;;;;;11.30;6.40;;;14.10;99.90;;;;;;5038334;28;20044;-90
2022/05/05 08:13:45;;;;;;;11.02;5.95;;;14.20;99.90;;;;;;5053368;28;20477;-87
2022/05/05 08:16:11;;;;;;;11.88;5.72;;;14.40;99.90;;;;;;5042538;28;20037;-89
2022/05/05 08:18:38;;;;;;;10.18;5.78;;;14.50;99.90;;;;;;5054713;28;20094;-87
2022/05/05 08:21:06;;;;;;;10.38;6.50;;;14.60;99.90;;;;;;5058246;28;20045;-88
2022/05/05 08:23:33;;;;;;;11.63;6.25;;;14.70;99.90;;;;;;5048425;28;20049;-89
2022/05/05 08:28:43;;;;;;;14.80;5.70;;;15.10;99.90;;;;;;5062248;28;20036;-88
2022/05/05 08:31:10;;;;;;;10.95;5.60;;;15.00;99.90;;;;;;5062264;28;20499;-87
2022/05/05 08:33:38;;;;;;;11.95;6.25;;;15.00;99.90;;;;;;5062752;28;20121;-88
2022/05/05 08:36:05;;;;;;;12.00;6.28;;;15.10;99.90;;;;;;5041700;28;20110;-87
2022/05/05 08:38:32;;;;;;;12.73;5.50;;;15.00;99.90;;;;;;5061864;28;20032;-88
2022/05/05 08:40:58;;;;;;;11.63;5.25;;;15.60;99.90;;;;;;5060395;28;20150;-88
2022/05/05 08:43:24;;;;;;;9.15;5.05;;;15.50;99.90;;;;;;5045737;28;20043;-87
2022/05/05 08:45:54;;;;;;;14.02;5.15;;;15.50;99.90;;;;;;5043202;28;20067;-88
2022/05/05 08:48:20;;;;;;;15.77;4.90;;;15.70;99.90;;;;;;5061811;28;20088;-87
2022/05/05 08:50:51;;;;;;;6.97;4.05;;;15.90;99.90;;;;;;5041874;28;20049;-88
2022/05/05 08:53:20;;;;;;;9.43;4.90;;;16.00;99.90;;;;;;5044267;28;20043;-88
2022/05/05 08:55:46;;;;;;;10.15;5.70;;;15.90;99.90;;;;;;5040697;28;20044;-88
2022/05/05 08:58:12;;;;;;;8.45;5.20;;;15.90;99.90;;;;;;5057681;28;20114;-86
2022/05/05 09:00:38;;;;;;;10.88;5.72;;;15.80;99.90;;;;;;5063987;28;20036;-88
2022/05/05 09:03:04;;;;;;;9.55;5.90;;;16.20;99.90;;;;;;5043593;28;20511;-87
2022/05/05 09:05:42;;;;;;;12.15;5.32;;;16.30;99.90;;;;;;5046657;28;20451;-87
2022/05/05 09:08:11;;;;;;;12.05;5.72;;;16.70;99.90;;;;;;5058835;28;20542;-89
2022/05/05 09:10:45;;;;;;;10.02;5.50;;;16.60;99.90;;;;;;5040646;28;20234;-87
2022/05/05 09:13:11;;;;;;;7.57;4.73;;;17.00;99.90;;;;;;5037175;28;20043;-88
2022/05/05 09:15:41;;;;;;;7.65;5.00;;;16.80;99.90;;;;;;5040773;28;20051;-87
2022/05/05 09:18:28;;;;;;;8.50;5.20;;;17.10;99.90;;;;;;5040656;28;20079;-87
2022/05/05 09:20:54;;;;;;;9.85;4.93;;;17.00;99.90;;;;;;5035996;28;20171;-89
2022/05/05 09:26:27;;;;;;;;;;;17.10;99.90;;;;;;5060173;28;20096;-87
2022/05/05 09:28:55;;;;;;;8.50;5.20;;;16.80;99.90;;;;;;5033942;28;19955;-88
2022/05/05 09:31:22;;;;;;;6.75;5.00;;;17.70;99.90;;;;;;5053098;28;20086;-88
2022/05/05 09:33:48;;;;;;;8.63;4.68;;;17.70;99.90;;;;;;5035143;28;20572;-88
2022/05/05 09:36:14;;;;;;;6.75;4.85;;;17.80;99.90;;;;;;5054679;28;20044;-88
2022/05/05 09:38:54;;;;;;;8.95;5.50;;;17.90;99.90;;;;;;5041411;28;20076;-87
2022/05/05 09:41:25;;;;;;;9.95;5.50;;;17.50;99.90;;;;;;5069635;28;20047;-88
2022/05/05 09:43:53;;;;;;;8.10;4.95;;;17.60;99.90;;;;;;5033672;28;21102;-88
2022/05/05 09:46:28;;;;;;;9.98;5.30;;;18.10;99.90;;;;;;5056760;28;20051;-87
2022/05/05 09:49:19;;;;;;;11.60;6.15;;;18.40;99.90;;;;;;5047438;28;20513;-87
2022/05/05 09:57:45;;;;;;;9.57;6.03;;;18.20;99.90;;;;;;5051326;28;20067;-89
2022/05/05 10:00:43;;;;;;;8.32;5.88;;;18.90;99.90;;;;;;5053233;28;20490;-87
2022/05/05 10:05:51;;;;;;;6.97;5.57;;;18.50;99.90;;;;;;5052073;28;20055;-87
2022/05/05 10:08:24;;;;;;;6.78;5.65;;;18.50;99.90;;;;;;5035785;28;20036;-87
2022/05/05 10:10:50;;;;;;;8.00;5.65;;;19.20;99.90;;;;;;5055634;28;20091;-88
2022/05/05 10:13:20;;;;;;;8.75;5.80;;;18.80;99.90;;;;;;5042232;28;20040;-87
2022/05/05 10:15:49;;;;;;;7.53;5.43;;;19.30;99.90;;;;;;5042617;28;20063;-88
2022/05/05 10:18:19;;;;;;;7.28;5.28;;;19.20;99.90;;;;;;5074496;28;20039;-88
2022/05/05 10:20:45;;;;;;;7.32;5.32;;;19.30;99.90;;;;;;5035157;28;20051;-87
2022/05/05 10:23:30;;;;;;;8.80;5.57;;;19.10;99.90;;;;;;5054284;28;20036;-87
2022/05/05 10:25:55;;;;;;;8.32;5.93;;;19.50;99.90;;;;;;5033419;28;20071;-88
2022/05/05 10:28:42;;;;;;;9.27;6.05;;;19.70;99.90;;;;;;5055212;28;20139;-88
2022/05/05 10:31:12;;;;;;;8.40;5.80;;;19.10;99.90;;;;;;5068402;28;20213;-88
2022/05/05 10:33:56;;;;;;;7.85;5.55;;;19.00;99.90;;;;;;5053489;28;20040;-87
2022/05/05 10:36:23;;;;;;;26.40;6.07;;;19.50;99.90;;;;;;5038869;28;20666;-89
2022/05/05 10:38:53;;;;;;;7.97;5.10;;;20.00;99.90;;;;;;5035620;28;20033;-87
2022/05/05 10:41:35;;;;;;;8.20;5.88;;;20.10;99.90;;;;;;5033979;28;20079;-86
2022/05/05 10:44:16;;;;;;;7.28;5.60;;;19.70;99.90;;;;;;5049554;28;20044;-87
2022/05/05 10:47:04;;;;;;;8.77;5.88;;;20.00;99.90;;;;;;5054098;28;20136;-87
2022/05/05 10:49:39;;;;;;;8.30;5.47;;;20.50;99.90;;;;;;5053881;28;20024;-88
2022/05/05 10:52:08;;;;;;;7.57;6.00;;;20.60;99.90;;;;;;5033406;28;20108;-89
2022/05/05 10:54:34;;;;;;;8.10;5.93;;;20.20;99.90;;;;;;5031101;28;20385;-89
2022/05/05 10:57:39;;;;;;;9.40;6.40;;;20.00;99.90;;;;;;5037210;28;20547;-88
2022/05/05 11:00:08;;;;;;;7.25;6.22;;;20.10;99.90;;;;;;4982537;28;20092;-88
2022/05/05 11:02:35;;;;;;;7.82;6.32;;;20.50;99.90;;;;;;4980154;28;20147;-87
2022/05/05 11:05:27;;;;;;;10.73;6.47;;;20.40;99.90;;;;;;5005468;28;20056;-88
2022/05/05 11:08:20;;;;;;;8.30;7.07;;;19.90;99.90;;;;;;5034346;28;20101;-89
2022/05/05 11:13:47;;;;;;;9.77;7.07;;;19.00;99.90;;;;;;5051072;28;20059;-86
2022/05/05 11:22:20;;;;;;;9.93;7.07;;;18.80;99.90;;;;;;5053277;28;20506;-88
2022/05/05 11:24:50;;;;;;;10.60;7.20;;;19.10;99.90;;;;;;5034706;28;20081;-88
2022/05/05 11:27:21;;;;;;;10.73;7.32;;;20.20;99.90;;;;;;5051305;28;20250;-88
2022/05/05 11:29:52;;;;;;;10.90;7.32;;;20.40;99.90;;;;;;5038840;28;20347;-88
2022/05/05 11:32:19;;;;;;;9.80;7.60;;;21.30;99.90;;;;;;5040974;28;20069;-86
2022/05/05 11:34:46;;;;;;;11.10;8.00;;;21.00;99.90;;;;;;5045263;28;20037;-89
2022/05/05 11:37:13;;;;;;;10.25;7.88;;;19.50;99.90;;;;;;5041975;28;20034;-89
2022/05/05 11:39:39;;;;;;;10.63;7.75;;;19.50;99.90;;;;;;5040146;28;20032;-87
2022/05/05 11:42:07;;;;;;;8.75;7.53;;;20.30;99.90;;;;;;5052400;28;20067;-87
2022/05/05 11:44:41;;;;;;;10.77;7.80;;;20.30;99.90;;;;;;5062141;28;20047;-88
2022/05/05 11:47:17;;;;;;;9.63;7.63;;;19.80;99.90;;;;;;5057709;28;20036;-87
2022/05/05 11:49:48;;;;;;;10.68;7.93;;;19.40;99.90;;;;;;5044585;28;20404;-88
2022/05/05 11:52:17;;;;;;;10.63;7.53;;;19.40;99.90;;;;;;5040274;28;20043;-88
2022/05/05 11:54:47;;;;;;;9.88;7.90;;;19.10;99.90;;;;;;5042882;28;20354;-88
2022/05/05 11:57:29;;;;;;;14.57;8.40;;;18.80;99.90;;;;;;5050302;28;20190;-91
2022/05/05 12:02:39;;;;;;;12.20;7.43;;;20.10;99.90;;;;;;5062106;28;20064;-94
2022/05/05 12:05:11;;;;;;;11.00;7.18;;;20.80;99.90;;;;;;5045974;28;20076;-93
2022/05/05 12:07:37;;;;;;;9.25;7.10;;;20.60;99.90;;;;;;5059518;28;20044;-91
2022/05/05 12:10:08;;;;;;;10.07;6.95;;;19.10;99.90;;;;;;5044644;28;20035;-92
2022/05/05 12:12:36;;;;;;;10.55;7.55;;;19.50;99.90;;;;;;5045521;28;20036;-89
2022/05/05 12:15:08;;;;;;;9.65;7.22;;;19.70;99.90;;;;;;5042374;28;20128;-89
2022/05/05 12:18:01;;;;;;;13.35;7.32;;;19.70;99.90;;;;;;5059961;28;20051;-91
2022/05/05 12:20:30;;;;;;;8.52;6.75;;;20.10;99.90;;;;;;5037449;28;20052;-90
2022/05/05 12:23:00;;;;;;;9.45;6.82;;;19.50;99.90;;;;;;5039575;28;20473;-88
2022/05/05 12:25:27;;;;;;;10.63;7.10;;;19.40;99.90;;;;;;5055696;28;20247;-89
2022/05/05 12:27:57;;;;;;;9.43;6.75;;;19.10;99.90;;;;;;5042153;28;20101;-87
2022/05/05 12:30:34;;;;;;;10.23;7.40;;;19.20;99.90;;;;;;5048899;28;20036;-90
2022/05/05 12:33:00;;;;;;;10.52;6.70;;;19.30;99.90;;;;;;5059199;28;20500;-92
2022/05/05 12:36:11;;;;;;;9.45;6.72;;;20.00;99.90;;;;;;5038553;28;20085;-92
2022/05/05 12:39:08;;;;;;;10.10;6.50;;;19.80;99.90;;;;;;5003639;28;20053;-89
2022/05/05 12:41:34;;;;;;;7.93;6.43;;;20.40;99.90;;;;;;4984584;28;20041;-88
2022/05/05 12:44:10;;;;;;;9.43;6.78;;;20.80;99.90;;;;;;5052874;28;20040;-88
2022/05/05 12:46:52;;;;;;;8.45;6.05;;;20.70;99.90;;;;;;5040314;28;20065;-90
2022/05/05 12:49:39;;;;;;;8.30;5.82;;;21.30;99.90;;;;;;5059013;28;20048;-90
2022/05/05 13:00:58;;;;;;;8.10;6.25;;;20.60;99.90;;;;;;5061125;28;20044;-91
2022/05/05 13:03:35;;;;;;;8.20;5.50;;;20.90;99.90;;;;;;5062981;28;20098;-90
2022/05/05 13:06:00;;;;;;;7.88;6.18;;;20.70;99.90;;;;;;5040164;28;20040;-92
2022/05/05 13:08:26;;;;;;;8.52;6.30;;;20.50;99.90;;;;;;5045201;28;20085;-91
2022/05/05 13:10:53;;;;;;;6.85;5.80;;;19.80;99.90;;;;;;5044066;28;20072;-89
2022/05/05 13:13:21;;;;;;;7.35;5.93;;;20.60;99.90;;;;;;5047536;28;20089;-91
2022/05/05 13:15:47;;;;;;;7.13;5.80;;;21.40;99.90;;;;;;5060180;28;20153;-89
2022/05/05 13:18:13;;;;;;;5.97;5.22;;;21.80;99.90;;;;;;5042962;28;20221;-91
2022/05/05 13:20:39;;;;;;;8.68;5.13;;;23.00;99.90;;;;;;5042791;28;20071;-91
2022/05/05 13:23:05;;;;;;;6.57;5.07;;;22.60;99.90;;;;;;5053398;28;20043;-91
2022/05/05 13:25:31;;;;;;;6.40;5.55;;;22.10;99.90;;;;;;5053911;28;20163;-89
2022/05/05 13:27:57;;;;;;;8.05;5.47;;;21.10;99.90;;;;;;5053946;28;20629;-90
2022/05/05 13:30:22;;;;;;;7.50;5.40;;;22.00;99.90;;;;;;5036971;28;20029;-91
2022/05/05 13:32:48;;;;;;;8.80;5.55;;;22.20;99.90;;;;;;5058387;28;20095;-89
2022/05/05 13:35:14;;;;;;;10.02;5.38;;;21.60;99.90;;;;;;5053622;28;20158;-91
2022/05/05 13:37:40;;;;;;;9.32;5.18;;;22.00;99.90;;;;;;5038852;28;20115;-91
2022/05/05 13:40:08;;;;;;;8.05;5.55;;;21.30;99.90;;;;;;5052713;28;20501;-91
2022/05/05 13:42:35;;;;;;;9.30;5.13;;;21.20;99.90;;;;;;5039882;28;20040;-91
2022/05/05 13:45:00;;;;;;;10.98;5.55;;;21.80;99.90;;;;;;5039730;28;20079;-91
2022/05/05 13:47:26;;;;;;;8.95;5.72;;;21.20;99.90;;;;;;5043297;28;20091;-90
2022/05/05 13:49:52;;;;;;;7.03;5.40;;;21.40;99.90;;;;;;5053773;28;20044;-91